sensor_id;sensor_type;location;lat;lon;timestamp;P1;durP1;ratioP1;P2;durP2;ratioP2
12840;SDS011;6487;48.626;12.486;2023-07-13T00:01:39;6.10;;;5.33;;
12840;SDS011;6487;48.626;12.486;2023-07-13T00:04:07;6.23;;;5.63;;
12840;SDS011;6487;48.626;12.486;2023-07-13T00:06:36;8.10;;;4.80;;
12840;SDS011;6487;48.626;12.486;2023-07-13T00:09:05;5.00;;;4.50;;
12840;SDS011;6487;48.626;12.486;2023-07-13T00:11:37;6.57;;;5.20;;
12840;SDS011;6487;48.626;12.486;2023-07-13T00:14:06;8.10;;;4.90;;
12840;SDS011;6487;48.626;12.486;2023-07-13T00:16:35;6.47;;;5.20;;
12840;SDS011;6487;48.626;12.486;2023-07-13T00:19:06;7.67;;;4.77;;
12840;SDS011;6487;48.626;12.486;2023-07-13T00:21:35;8.27;;;4.63;;
12840;SDS011;6487;48.626;12.486;2023-07-13T00:24:03;8.90;;;5.10;;
12840;SDS011;6487;48.626;12.486;2023-07-13T00:26:34;5.37;;;4.87;;
12840;SDS011;6487;48.626;12.486;2023-07-13T00:29:02;7.53;;;4.90;;
12840;SDS011;6487;48.626;12.486;2023-07-13T00:31:35;6.33;;;5.23;;
12840;SDS011;6487;48.626;12.486;2023-07-13T00:34:04;8.00;;;5.40;;
12840;SDS011;6487;48.626;12.486;2023-07-13T00:36:35;5.83;;;4.67;;
12840;SDS011;6487;48.626;12.486;2023-07-13T00:39:05;6.33;;;5.17;;
12840;SDS011;6487;48.626;12.486;2023-07-13T00:41:34;4.80;;;4.40;;
12840;SDS011;6487;48.626;12.486;2023-07-13T00:44:03;7.73;;;5.27;;
12840;SDS011;6487;48.626;12.486;2023-07-13T00:46:32;6.77;;;5.03;;
12840;SDS011;6487;48.626;12.486;2023-07-13T00:49:02;5.50;;;4.73;;
12840;SDS011;6487;48.626;12.486;2023-07-13T00:51:34;8.93;;;4.60;;
12840;SDS011;6487;48.626;12.486;2023-07-13T00:54:09;6.87;;;4.70;;
12840;SDS011;6487;48.626;12.486;2023-07-13T00:56:41;11.03;;;5.07;;
12840;SDS011;6487;48.626;12.486;2023-07-13T00:59:13;7.23;;;5.10;;
12840;SDS011;6487;48.626;12.486;2023-07-13T01:01:45;8.03;;;5.23;;
12840;SDS011;6487;48.626;12.486;2023-07-13T01:04:16;6.43;;;5.33;;
12840;SDS011;6487;48.626;12.486;2023-07-13T01:06:45;8.77;;;5.27;;
12840;SDS011;6487;48.626;12.486;2023-07-13T01:09:16;7.27;;;5.40;;
12840;SDS011;6487;48.626;12.486;2023-07-13T01:11:45;6.20;;;4.93;;
12840;SDS011;6487;48.626;12.486;2023-07-13T01:14:14;4.77;;;4.37;;
12840;SDS011;6487;48.626;12.486;2023-07-13T01:16:48;7.57;;;4.43;;
12840;SDS011;6487;48.626;12.486;2023-07-13T01:19:21;8.03;;;4.77;;
12840;SDS011;6487;48.626;12.486;2023-07-13T01:22:05;6.63;;;4.70;;
12840;SDS011;6487;48.626;12.486;2023-07-13T01:24:39;6.90;;;4.93;;
12840;SDS011;6487;48.626;12.486;2023-07-13T01:27:10;5.17;;;4.77;;
12840;SDS011;6487;48.626;12.486;2023-07-13T01:29:41;9.77;;;5.37;;
12840;SDS011;6487;48.626;12.486;2023-07-13T01:32:14;7.40;;;5.60;;
12840;SDS011;6487;48.626;12.486;2023-07-13T01:34:51;6.50;;;4.73;;
12840;SDS011;6487;48.626;12.486;2023-07-13T01:37:23;7.23;;;5.30;;
12840;SDS011;6487;48.626;12.486;2023-07-13T01:39:53;10.00;;;5.20;;
12840;SDS011;6487;48.626;12.486;2023-07-13T01:42:21;7.33;;;4.90;;
12840;SDS011;6487;48.626;12.486;2023-07-13T01:44:52;5.33;;;4.83;;
12840;SDS011;6487;48.626;12.486;2023-07-13T01:47:21;5.33;;;4.80;;
12840;SDS011;6487;48.626;12.486;2023-07-13T01:49:52;9.53;;;5.30;;
12840;SDS011;6487;48.626;12.486;2023-07-13T01:52:21;6.40;;;4.53;;
12840;SDS011;6487;48.626;12.486;2023-07-13T01:54:51;7.47;;;4.70;;
12840;SDS011;6487;48.626;12.486;2023-07-13T01:57:19;6.33;;;4.63;;
12840;SDS011;6487;48.626;12.486;2023-07-13T01:59:47;9.43;;;4.93;;
12840;SDS011;6487;48.626;12.486;2023-07-13T02:02:16;4.63;;;4.03;;
12840;SDS011;6487;48.626;12.486;2023-07-13T02:04:47;6.17;;;4.27;;
12840;SDS011;6487;48.626;12.486;2023-07-13T02:07:16;5.97;;;4.27;;
12840;SDS011;6487;48.626;12.486;2023-07-13T02:09:46;4.67;;;4.27;;
12840;SDS011;6487;48.626;12.486;2023-07-13T02:12:14;7.90;;;4.23;;
12840;SDS011;6487;48.626;12.486;2023-07-13T02:14:43;6.03;;;4.20;;
12840;SDS011;6487;48.626;12.486;2023-07-13T02:17:11;4.30;;;3.90;;
12840;SDS011;6487;48.626;12.486;2023-07-13T02:19:39;5.67;;;3.97;;
12840;SDS011;6487;48.626;12.486;2023-07-13T02:22:08;4.10;;;3.67;;
12840;SDS011;6487;48.626;12.486;2023-07-13T02:24:36;7.70;;;3.77;;
12840;SDS011;6487;48.626;12.486;2023-07-13T02:27:09;4.40;;;3.33;;
12840;SDS011;6487;48.626;12.486;2023-07-13T02:29:37;4.07;;;3.63;;
12840;SDS011;6487;48.626;12.486;2023-07-13T02:32:06;4.10;;;3.77;;
12840;SDS011;6487;48.626;12.486;2023-07-13T02:34:35;5.97;;;3.80;;
12840;SDS011;6487;48.626;12.486;2023-07-13T02:37:08;5.70;;;4.23;;
12840;SDS011;6487;48.626;12.486;2023-07-13T02:39:39;7.80;;;4.27;;
12840;SDS011;6487;48.626;12.486;2023-07-13T02:42:09;4.30;;;3.63;;
12840;SDS011;6487;48.626;12.486;2023-07-13T02:44:37;4.47;;;3.63;;
12840;SDS011;6487;48.626;12.486;2023-07-13T02:47:05;9.43;;;4.13;;
12840;SDS011;6487;48.626;12.486;2023-07-13T02:49:34;5.03;;;4.00;;
12840;SDS011;6487;48.626;12.486;2023-07-13T02:52:03;9.13;;;4.03;;
12840;SDS011;6487;48.626;12.486;2023-07-13T02:54:32;7.47;;;4.20;;
12840;SDS011;6487;48.626;12.486;2023-07-13T02:57:01;7.97;;;3.40;;
12840;SDS011;6487;48.626;12.486;2023-07-13T02:59:31;6.10;;;3.37;;
12840;SDS011;6487;48.626;12.486;2023-07-13T03:02:00;6.37;;;3.60;;
12840;SDS011;6487;48.626;12.486;2023-07-13T03:04:28;7.60;;;3.73;;
12840;SDS011;6487;48.626;12.486;2023-07-13T03:06:57;5.93;;;3.97;;
12840;SDS011;6487;48.626;12.486;2023-07-13T03:09:25;6.17;;;3.87;;
12840;SDS011;6487;48.626;12.486;2023-07-13T03:11:53;6.70;;;3.87;;
12840;SDS011;6487;48.626;12.486;2023-07-13T03:14:22;7.30;;;3.50;;
12840;SDS011;6487;48.626;12.486;2023-07-13T03:16:53;4.77;;;3.40;;
12840;SDS011;6487;48.626;12.486;2023-07-13T03:19:24;3.90;;;3.47;;
12840;SDS011;6487;48.626;12.486;2023-07-13T03:21:55;7.87;;;3.57;;
12840;SDS011;6487;48.626;12.486;2023-07-13T03:24:23;7.77;;;3.33;;
12840;SDS011;6487;48.626;12.486;2023-07-13T03:26:52;6.33;;;3.43;;
12840;SDS011;6487;48.626;12.486;2023-07-13T03:29:20;5.10;;;3.77;;
12840;SDS011;6487;48.626;12.486;2023-07-13T03:31:49;10.20;;;3.53;;
12840;SDS011;6487;48.626;12.486;2023-07-13T03:34:18;6.30;;;3.70;;
12840;SDS011;6487;48.626;12.486;2023-07-13T03:36:50;4.17;;;3.60;;
12840;SDS011;6487;48.626;12.486;2023-07-13T03:39:21;5.70;;;3.80;;
12840;SDS011;6487;48.626;12.486;2023-07-13T03:41:50;8.57;;;3.63;;
12840;SDS011;6487;48.626;12.486;2023-07-13T03:44:18;5.77;;;3.70;;
12840;SDS011;6487;48.626;12.486;2023-07-13T03:46:49;4.57;;;3.50;;
12840;SDS011;6487;48.626;12.486;2023-07-13T03:49:19;6.17;;;4.00;;
12840;SDS011;6487;48.626;12.486;2023-07-13T03:51:47;5.23;;;3.73;;
12840;SDS011;6487;48.626;12.486;2023-07-13T03:54:19;6.70;;;3.60;;
12840;SDS011;6487;48.626;12.486;2023-07-13T03:56:48;3.70;;;3.40;;
12840;SDS011;6487;48.626;12.486;2023-07-13T03:59:16;6.47;;;3.40;;
12840;SDS011;6487;48.626;12.486;2023-07-13T04:01:44;6.53;;;3.33;;
12840;SDS011;6487;48.626;12.486;2023-07-13T04:04:15;5.00;;;3.67;;
12840;SDS011;6487;48.626;12.486;2023-07-13T04:06:44;4.53;;;3.23;;
12840;SDS011;6487;48.626;12.486;2023-07-13T04:09:13;4.73;;;3.53;;
12840;SDS011;6487;48.626;12.486;2023-07-13T04:11:44;6.43;;;3.90;;
12840;SDS011;6487;48.626;12.486;2023-07-13T04:14:13;7.63;;;3.70;;
12840;SDS011;6487;48.626;12.486;2023-07-13T04:16:41;8.20;;;4.40;;
12840;SDS011;6487;48.626;12.486;2023-07-13T04:19:10;4.30;;;3.70;;
12840;SDS011;6487;48.626;12.486;2023-07-13T04:21:41;5.50;;;4.10;;
12840;SDS011;6487;48.626;12.486;2023-07-13T04:24:11;6.03;;;3.40;;
12840;SDS011;6487;48.626;12.486;2023-07-13T04:26:39;3.87;;;3.40;;
12840;SDS011;6487;48.626;12.486;2023-07-13T04:29:07;6.70;;;3.50;;
12840;SDS011;6487;48.626;12.486;2023-07-13T04:31:36;6.93;;;4.33;;
12840;SDS011;6487;48.626;12.486;2023-07-13T04:34:07;5.47;;;3.50;;
12840;SDS011;6487;48.626;12.486;2023-07-13T04:36:35;5.60;;;3.53;;
12840;SDS011;6487;48.626;12.486;2023-07-13T04:39:04;4.97;;;3.90;;
12840;SDS011;6487;48.626;12.486;2023-07-13T04:41:35;4.80;;;4.23;;
12840;SDS011;6487;48.626;12.486;2023-07-13T04:44:06;5.93;;;3.70;;
12840;SDS011;6487;48.626;12.486;2023-07-13T04:46:35;6.17;;;4.10;;
12840;SDS011;6487;48.626;12.486;2023-07-13T04:49:03;4.87;;;3.87;;
12840;SDS011;6487;48.626;12.486;2023-07-13T04:51:35;5.40;;;3.90;;
12840;SDS011;6487;48.626;12.486;2023-07-13T04:54:03;6.23;;;3.47;;
12840;SDS011;6487;48.626;12.486;2023-07-13T04:56:35;5.60;;;3.80;;
12840;SDS011;6487;48.626;12.486;2023-07-13T04:59:03;9.57;;;4.23;;
12840;SDS011;6487;48.626;12.486;2023-07-13T05:01:32;7.30;;;4.20;;
12840;SDS011;6487;48.626;12.486;2023-07-13T05:04:00;5.70;;;3.87;;
12840;SDS011;6487;48.626;12.486;2023-07-13T05:06:29;5.63;;;3.73;;
12840;SDS011;6487;48.626;12.486;2023-07-13T05:08:57;5.90;;;3.20;;
12840;SDS011;6487;48.626;12.486;2023-07-13T05:11:26;10.57;;;4.17;;
12840;SDS011;6487;48.626;12.486;2023-07-13T05:13:55;7.00;;;3.83;;
12840;SDS011;6487;48.626;12.486;2023-07-13T05:16:24;6.17;;;4.03;;
12840;SDS011;6487;48.626;12.486;2023-07-13T05:18:52;6.70;;;4.80;;
12840;SDS011;6487;48.626;12.486;2023-07-13T05:21:21;4.97;;;3.40;;
12840;SDS011;6487;48.626;12.486;2023-07-13T05:23:49;8.53;;;3.97;;
12840;SDS011;6487;48.626;12.486;2023-07-13T05:26:18;4.87;;;3.87;;
12840;SDS011;6487;48.626;12.486;2023-07-13T05:28:47;4.20;;;3.87;;
12840;SDS011;6487;48.626;12.486;2023-07-13T05:31:17;5.40;;;4.10;;
12840;SDS011;6487;48.626;12.486;2023-07-13T05:33:45;8.83;;;4.37;;
12840;SDS011;6487;48.626;12.486;2023-07-13T05:36:13;6.57;;;4.30;;
12840;SDS011;6487;48.626;12.486;2023-07-13T05:38:42;5.30;;;4.23;;
12840;SDS011;6487;48.626;12.486;2023-07-13T05:41:10;7.50;;;4.37;;
12840;SDS011;6487;48.626;12.486;2023-07-13T05:43:39;4.73;;;4.17;;
12840;SDS011;6487;48.626;12.486;2023-07-13T05:46:07;6.43;;;3.90;;
12840;SDS011;6487;48.626;12.486;2023-07-13T05:48:37;5.13;;;3.87;;
12840;SDS011;6487;48.626;12.486;2023-07-13T05:51:05;4.43;;;3.67;;
12840;SDS011;6487;48.626;12.486;2023-07-13T05:53:34;7.57;;;4.57;;
12840;SDS011;6487;48.626;12.486;2023-07-13T05:56:02;5.23;;;4.10;;
12840;SDS011;6487;48.626;12.486;2023-07-13T05:58:31;5.63;;;4.10;;
12840;SDS011;6487;48.626;12.486;2023-07-13T06:01:00;6.57;;;4.13;;
12840;SDS011;6487;48.626;12.486;2023-07-13T06:03:32;5.73;;;4.10;;
12840;SDS011;6487;48.626;12.486;2023-07-13T06:06:02;5.40;;;3.93;;
12840;SDS011;6487;48.626;12.486;2023-07-13T06:08:31;7.30;;;4.17;;
12840;SDS011;6487;48.626;12.486;2023-07-13T06:11:03;6.97;;;4.00;;
12840;SDS011;6487;48.626;12.486;2023-07-13T06:13:34;6.67;;;4.17;;
12840;SDS011;6487;48.626;12.486;2023-07-13T06:16:03;5.43;;;3.67;;
12840;SDS011;6487;48.626;12.486;2023-07-13T06:18:32;5.80;;;4.27;;
12840;SDS011;6487;48.626;12.486;2023-07-13T06:21:05;6.70;;;3.80;;
12840;SDS011;6487;48.626;12.486;2023-07-13T06:23:35;6.17;;;3.73;;
12840;SDS011;6487;48.626;12.486;2023-07-13T06:26:04;6.80;;;3.70;;
12840;SDS011;6487;48.626;12.486;2023-07-13T06:28:34;6.10;;;4.03;;
12840;SDS011;6487;48.626;12.486;2023-07-13T06:31:05;9.63;;;3.97;;
12840;SDS011;6487;48.626;12.486;2023-07-13T06:33:36;10.20;;;4.07;;
12840;SDS011;6487;48.626;12.486;2023-07-13T06:36:06;4.97;;;3.03;;
12840;SDS011;6487;48.626;12.486;2023-07-13T06:38:36;4.73;;;3.53;;
12840;SDS011;6487;48.626;12.486;2023-07-13T06:41:05;3.97;;;3.20;;
12840;SDS011;6487;48.626;12.486;2023-07-13T06:43:36;3.80;;;3.03;;
12840;SDS011;6487;48.626;12.486;2023-07-13T06:46:04;7.10;;;3.63;;
12840;SDS011;6487;48.626;12.486;2023-07-13T06:48:32;5.63;;;3.20;;
12840;SDS011;6487;48.626;12.486;2023-07-13T06:51:01;5.33;;;3.10;;
12840;SDS011;6487;48.626;12.486;2023-07-13T06:53:31;6.57;;;3.40;;
12840;SDS011;6487;48.626;12.486;2023-07-13T06:56:03;5.63;;;3.53;;
12840;SDS011;6487;48.626;12.486;2023-07-13T06:58:33;7.87;;;3.23;;
12840;SDS011;6487;48.626;12.486;2023-07-13T07:01:02;4.20;;;2.93;;
12840;SDS011;6487;48.626;12.486;2023-07-13T07:03:33;5.63;;;3.10;;
12840;SDS011;6487;48.626;12.486;2023-07-13T07:06:03;4.77;;;3.23;;
12840;SDS011;6487;48.626;12.486;2023-07-13T07:08:42;6.47;;;3.23;;
12840;SDS011;6487;48.626;12.486;2023-07-13T07:11:11;3.97;;;2.93;;
12840;SDS011;6487;48.626;12.486;2023-07-13T07:13:44;5.10;;;2.67;;
12840;SDS011;6487;48.626;12.486;2023-07-13T07:16:13;5.07;;;2.63;;
12840;SDS011;6487;48.626;12.486;2023-07-13T07:18:45;3.63;;;2.77;;
12840;SDS011;6487;48.626;12.486;2023-07-13T07:21:14;6.00;;;2.40;;
12840;SDS011;6487;48.626;12.486;2023-07-13T07:23:44;3.90;;;2.90;;
12840;SDS011;6487;48.626;12.486;2023-07-13T07:26:13;3.37;;;2.50;;
12840;SDS011;6487;48.626;12.486;2023-07-13T07:28:42;4.90;;;2.77;;
12840;SDS011;6487;48.626;12.486;2023-07-13T07:31:17;5.80;;;2.80;;
12840;SDS011;6487;48.626;12.486;2023-07-13T07:33:49;4.83;;;2.60;;
12840;SDS011;6487;48.626;12.486;2023-07-13T07:36:17;3.60;;;2.40;;
12840;SDS011;6487;48.626;12.486;2023-07-13T07:38:50;7.40;;;2.97;;
12840;SDS011;6487;48.626;12.486;2023-07-13T07:41:18;3.97;;;2.40;;
12840;SDS011;6487;48.626;12.486;2023-07-13T07:43:49;3.50;;;2.57;;
12840;SDS011;6487;48.626;12.486;2023-07-13T07:46:18;4.20;;;2.90;;
12840;SDS011;6487;48.626;12.486;2023-07-13T07:48:46;4.07;;;2.60;;
12840;SDS011;6487;48.626;12.486;2023-07-13T07:51:15;3.47;;;2.50;;
12840;SDS011;6487;48.626;12.486;2023-07-13T07:53:43;2.67;;;1.90;;
12840;SDS011;6487;48.626;12.486;2023-07-13T07:56:13;4.63;;;2.10;;
12840;SDS011;6487;48.626;12.486;2023-07-13T07:58:45;2.87;;;2.20;;
12840;SDS011;6487;48.626;12.486;2023-07-13T08:01:16;3.63;;;2.23;;
12840;SDS011;6487;48.626;12.486;2023-07-13T08:03:48;3.27;;;2.13;;
12840;SDS011;6487;48.626;12.486;2023-07-13T08:06:19;4.37;;;2.10;;
12840;SDS011;6487;48.626;12.486;2023-07-13T08:08:51;4.50;;;1.97;;
12840;SDS011;6487;48.626;12.486;2023-07-13T08:11:20;2.63;;;1.90;;
12840;SDS011;6487;48.626;12.486;2023-07-13T08:13:52;4.47;;;1.90;;
12840;SDS011;6487;48.626;12.486;2023-07-13T08:16:29;2.97;;;1.97;;
12840;SDS011;6487;48.626;12.486;2023-07-13T08:18:59;3.20;;;2.00;;
12840;SDS011;6487;48.626;12.486;2023-07-13T08:21:28;7.00;;;2.10;;
12840;SDS011;6487;48.626;12.486;2023-07-13T08:23:56;4.33;;;1.97;;
12840;SDS011;6487;48.626;12.486;2023-07-13T08:26:25;6.53;;;2.10;;
12840;SDS011;6487;48.626;12.486;2023-07-13T08:28:53;3.60;;;1.63;;
12840;SDS011;6487;48.626;12.486;2023-07-13T08:31:24;3.03;;;2.03;;
12840;SDS011;6487;48.626;12.486;2023-07-13T08:33:57;4.83;;;2.33;;
12840;SDS011;6487;48.626;12.486;2023-07-13T08:36:25;3.47;;;1.70;;
12840;SDS011;6487;48.626;12.486;2023-07-13T08:38:54;4.80;;;2.10;;
12840;SDS011;6487;48.626;12.486;2023-07-13T08:41:23;3.90;;;2.00;;
12840;SDS011;6487;48.626;12.486;2023-07-13T08:43:54;5.73;;;2.00;;
12840;SDS011;6487;48.626;12.486;2023-07-13T08:46:28;2.77;;;1.80;;
12840;SDS011;6487;48.626;12.486;2023-07-13T08:49:04;4.07;;;1.87;;
12840;SDS011;6487;48.626;12.486;2023-07-13T08:51:39;5.73;;;1.80;;
12840;SDS011;6487;48.626;12.486;2023-07-13T08:54:16;2.60;;;1.40;;
12840;SDS011;6487;48.626;12.486;2023-07-13T08:56:49;2.37;;;1.70;;
12840;SDS011;6487;48.626;12.486;2023-07-13T08:59:21;6.00;;;1.83;;
12840;SDS011;6487;48.626;12.486;2023-07-13T09:01:58;4.03;;;1.90;;
12840;SDS011;6487;48.626;12.486;2023-07-13T09:04:45;4.60;;;1.87;;
12840;SDS011;6487;48.626;12.486;2023-07-13T09:07:20;5.57;;;2.00;;
12840;SDS011;6487;48.626;12.486;2023-07-13T09:10:04;3.33;;;1.87;;
12840;SDS011;6487;48.626;12.486;2023-07-13T09:12:46;3.37;;;1.70;;
12840;SDS011;6487;48.626;12.486;2023-07-13T09:15:29;4.00;;;1.47;;
12840;SDS011;6487;48.626;12.486;2023-07-13T09:18:02;2.30;;;1.50;;
12840;SDS011;6487;48.626;12.486;2023-07-13T09:20:37;3.43;;;1.53;;
12840;SDS011;6487;48.626;12.486;2023-07-13T09:23:11;2.20;;;1.20;;
12840;SDS011;6487;48.626;12.486;2023-07-13T09:25:44;6.23;;;1.43;;
12840;SDS011;6487;48.626;12.486;2023-07-13T09:28:18;2.90;;;1.60;;
12840;SDS011;6487;48.626;12.486;2023-07-13T09:30:51;2.00;;;1.50;;
12840;SDS011;6487;48.626;12.486;2023-07-13T09:33:26;1.43;;;1.13;;
12840;SDS011;6487;48.626;12.486;2023-07-13T09:36:04;4.63;;;1.70;;
12840;SDS011;6487;48.626;12.486;2023-07-13T09:38:46;2.53;;;1.60;;
12840;SDS011;6487;48.626;12.486;2023-07-13T09:41:19;2.53;;;1.70;;
12840;SDS011;6487;48.626;12.486;2023-07-13T09:46:57;2.73;;;1.70;;
12840;SDS011;6487;48.626;12.486;2023-07-13T09:49:28;5.27;;;1.77;;
12840;SDS011;6487;48.626;12.486;2023-07-13T09:52:02;5.90;;;1.80;;
12840;SDS011;6487;48.626;12.486;2023-07-13T09:54:34;2.83;;;2.00;;
12840;SDS011;6487;48.626;12.486;2023-07-13T09:57:11;4.47;;;1.73;;
12840;SDS011;6487;48.626;12.486;2023-07-13T09:59:43;4.77;;;2.30;;
12840;SDS011;6487;48.626;12.486;2023-07-13T10:02:22;3.03;;;1.70;;
12840;SDS011;6487;48.626;12.486;2023-07-13T10:04:58;7.10;;;1.83;;
12840;SDS011;6487;48.626;12.486;2023-07-13T10:07:29;3.63;;;1.63;;
12840;SDS011;6487;48.626;12.486;2023-07-13T10:09:59;2.63;;;1.60;;
12840;SDS011;6487;48.626;12.486;2023-07-13T10:12:29;5.17;;;1.73;;
12840;SDS011;6487;48.626;12.486;2023-07-13T10:15:03;7.13;;;2.17;;
12840;SDS011;6487;48.626;12.486;2023-07-13T10:17:49;2.17;;;1.47;;
12840;SDS011;6487;48.626;12.486;2023-07-13T10:20:21;4.60;;;1.87;;
12840;SDS011;6487;48.626;12.486;2023-07-13T10:22:50;1.80;;;1.70;;
12840;SDS011;6487;48.626;12.486;2023-07-13T10:25:25;3.80;;;2.03;;
12840;SDS011;6487;48.626;12.486;2023-07-13T10:27:56;2.67;;;1.63;;
12840;SDS011;6487;48.626;12.486;2023-07-13T10:30:34;4.40;;;1.90;;
12840;SDS011;6487;48.626;12.486;2023-07-13T10:33:10;4.97;;;1.80;;
12840;SDS011;6487;48.626;12.486;2023-07-13T10:35:42;3.93;;;1.70;;
12840;SDS011;6487;48.626;12.486;2023-07-13T10:38:14;2.00;;;1.63;;
12840;SDS011;6487;48.626;12.486;2023-07-13T10:40:51;1.87;;;1.70;;
12840;SDS011;6487;48.626;12.486;2023-07-13T10:43:31;2.37;;;1.47;;
12840;SDS011;6487;48.626;12.486;2023-07-13T10:46:03;2.43;;;1.67;;
12840;SDS011;6487;48.626;12.486;2023-07-13T10:48:36;5.93;;;1.70;;
12840;SDS011;6487;48.626;12.486;2023-07-13T10:51:08;3.37;;;1.50;;
12840;SDS011;6487;48.626;12.486;2023-07-13T10:53:38;2.07;;;1.43;;
12840;SDS011;6487;48.626;12.486;2023-07-13T10:56:15;2.80;;;1.73;;
12840;SDS011;6487;48.626;12.486;2023-07-13T10:59:01;5.23;;;1.43;;
12840;SDS011;6487;48.626;12.486;2023-07-13T11:01:41;4.50;;;1.50;;
12840;SDS011;6487;48.626;12.486;2023-07-13T11:04:20;2.90;;;2.00;;
12840;SDS011;6487;48.626;12.486;2023-07-13T11:06:56;5.78;;;1.85;;
12840;SDS011;6487;48.626;12.486;2023-07-13T11:09:34;5.03;;;1.88;;
12840;SDS011;6487;48.626;12.486;2023-07-13T11:12:07;3.55;;;1.80;;
12840;SDS011;6487;48.626;12.486;2023-07-13T11:15:00;3.10;;;1.90;;
12840;SDS011;6487;48.626;12.486;2023-07-13T11:17:35;2.35;;;1.65;;
12840;SDS011;6487;48.626;12.486;2023-07-13T11:20:21;2.60;;;1.75;;
12840;SDS011;6487;48.626;12.486;2023-07-13T11:23:17;3.60;;;2.28;;
12840;SDS011;6487;48.626;12.486;2023-07-13T11:25:58;3.15;;;1.67;;
12840;SDS011;6487;48.626;12.486;2023-07-13T11:28:30;2.70;;;1.92;;
12840;SDS011;6487;48.626;12.486;2023-07-13T11:31:15;3.78;;;1.50;;
12840;SDS011;6487;48.626;12.486;2023-07-13T11:36:42;4.20;;;1.80;;
12840;SDS011;6487;48.626;12.486;2023-07-13T11:39:16;2.33;;;1.70;;
12840;SDS011;6487;48.626;12.486;2023-07-13T11:41:50;2.85;;;1.65;;
12840;SDS011;6487;48.626;12.486;2023-07-13T11:44:24;4.78;;;2.05;;
12840;SDS011;6487;48.626;12.486;2023-07-13T11:46:55;3.17;;;1.77;;
12840;SDS011;6487;48.626;12.486;2023-07-13T11:49:29;3.90;;;2.10;;
12840;SDS011;6487;48.626;12.486;2023-07-13T11:52:01;5.03;;;1.98;;
12840;SDS011;6487;48.626;12.486;2023-07-13T11:54:32;1.50;;;1.40;;
12840;SDS011;6487;48.626;12.486;2023-07-13T11:57:20;5.13;;;1.90;;
12840;SDS011;6487;48.626;12.486;2023-07-13T11:59:54;3.15;;;1.50;;
12840;SDS011;6487;48.626;12.486;2023-07-13T12:02:26;2.90;;;1.55;;
12840;SDS011;6487;48.626;12.486;2023-07-13T12:04:58;2.75;;;1.63;;
12840;SDS011;6487;48.626;12.486;2023-07-13T12:07:29;2.33;;;1.60;;
12840;SDS011;6487;48.626;12.486;2023-07-13T12:10:02;2.72;;;1.50;;
12840;SDS011;6487;48.626;12.486;2023-07-13T12:12:47;4.00;;;1.40;;
12840;SDS011;6487;48.626;12.486;2023-07-13T12:15:20;4.38;;;1.77;;
12840;SDS011;6487;48.626;12.486;2023-07-13T12:17:49;2.70;;;1.88;;
12840;SDS011;6487;48.626;12.486;2023-07-13T12:20:20;2.97;;;1.55;;
12840;SDS011;6487;48.626;12.486;2023-07-13T12:22:52;3.50;;;1.60;;
12840;SDS011;6487;48.626;12.486;2023-07-13T12:25:22;1.50;;;1.20;;
12840;SDS011;6487;48.626;12.486;2023-07-13T12:27:51;4.28;;;1.67;;
12840;SDS011;6487;48.626;12.486;2023-07-13T12:30:29;4.75;;;1.52;;
12840;SDS011;6487;48.626;12.486;2023-07-13T12:33:07;2.58;;;1.60;;
12840;SDS011;6487;48.626;12.486;2023-07-13T12:35:41;2.25;;;1.70;;
12840;SDS011;6487;48.626;12.486;2023-07-13T12:38:13;9.63;;;1.88;;
12840;SDS011;6487;48.626;12.486;2023-07-13T12:40:45;1.70;;;1.60;;
12840;SDS011;6487;48.626;12.486;2023-07-13T12:43:17;3.80;;;1.52;;
12840;SDS011;6487;48.626;12.486;2023-07-13T12:45:54;6.55;;;1.50;;
12840;SDS011;6487;48.626;12.486;2023-07-13T12:48:25;2.22;;;1.23;;
12840;SDS011;6487;48.626;12.486;2023-07-13T12:51:12;2.63;;;1.42;;
12840;SDS011;6487;48.626;12.486;2023-07-13T12:53:47;2.08;;;1.50;;
12840;SDS011;6487;48.626;12.486;2023-07-13T12:56:21;6.75;;;1.50;;
12840;SDS011;6487;48.626;12.486;2023-07-13T12:58:56;4.47;;;1.63;;
12840;SDS011;6487;48.626;12.486;2023-07-13T13:01:31;2.00;;;1.38;;
12840;SDS011;6487;48.626;12.486;2023-07-13T13:04:03;2.67;;;1.60;;
12840;SDS011;6487;48.626;12.486;2023-07-13T13:06:35;1.63;;;1.52;;
12840;SDS011;6487;48.626;12.486;2023-07-13T13:09:05;2.17;;;1.65;;
12840;SDS011;6487;48.626;12.486;2023-07-13T13:11:42;3.10;;;1.50;;
12840;SDS011;6487;48.626;12.486;2023-07-13T13:14:10;2.95;;;1.35;;
12840;SDS011;6487;48.626;12.486;2023-07-13T13:16:45;2.38;;;1.40;;
12840;SDS011;6487;48.626;12.486;2023-07-13T13:19:17;6.70;;;1.98;;
12840;SDS011;6487;48.626;12.486;2023-07-13T13:21:49;2.42;;;1.48;;
12840;SDS011;6487;48.626;12.486;2023-07-13T13:24:20;3.80;;;1.52;;
12840;SDS011;6487;48.626;12.486;2023-07-13T13:26:51;2.17;;;1.25;;
12840;SDS011;6487;48.626;12.486;2023-07-13T13:29:23;2.13;;;1.58;;
12840;SDS011;6487;48.626;12.486;2023-07-13T13:31:53;1.75;;;1.40;;
12840;SDS011;6487;48.626;12.486;2023-07-13T13:34:23;3.30;;;1.60;;
12840;SDS011;6487;48.626;12.486;2023-07-13T13:36:53;1.95;;;1.55;;
12840;SDS011;6487;48.626;12.486;2023-07-13T13:39:28;1.40;;;1.30;;
12840;SDS011;6487;48.626;12.486;2023-07-13T13:42:02;3.83;;;1.73;;
12840;SDS011;6487;48.626;12.486;2023-07-13T13:44:31;2.28;;;1.33;;
12840;SDS011;6487;48.626;12.486;2023-07-13T13:47:00;2.08;;;1.50;;
12840;SDS011;6487;48.626;12.486;2023-07-13T13:49:29;3.58;;;1.45;;
12840;SDS011;6487;48.626;12.486;2023-07-13T13:51:58;2.78;;;1.60;;
12840;SDS011;6487;48.626;12.486;2023-07-13T13:54:26;2.60;;;1.63;;
12840;SDS011;6487;48.626;12.486;2023-07-13T13:56:55;2.00;;;1.40;;
12840;SDS011;6487;48.626;12.486;2023-07-13T13:59:27;4.45;;;1.77;;
12840;SDS011;6487;48.626;12.486;2023-07-13T14:01:58;1.75;;;1.58;;
12840;SDS011;6487;48.626;12.486;2023-07-13T14:04:27;8.50;;;1.58;;
12840;SDS011;6487;48.626;12.486;2023-07-13T14:06:55;2.70;;;1.42;;
12840;SDS011;6487;48.626;12.486;2023-07-13T14:09:24;1.65;;;1.20;;
12840;SDS011;6487;48.626;12.486;2023-07-13T14:11:52;4.50;;;1.80;;
12840;SDS011;6487;48.626;12.486;2023-07-13T14:14:22;2.30;;;1.65;;
12840;SDS011;6487;48.626;12.486;2023-07-13T14:16:55;1.95;;;1.60;;
12840;SDS011;6487;48.626;12.486;2023-07-13T14:19:24;7.72;;;1.60;;
12840;SDS011;6487;48.626;12.486;2023-07-13T14:21:52;2.45;;;1.65;;
12840;SDS011;6487;48.626;12.486;2023-07-13T14:24:21;3.42;;;1.60;;
12840;SDS011;6487;48.626;12.486;2023-07-13T14:26:49;3.50;;;1.23;;
12840;SDS011;6487;48.626;12.486;2023-07-13T14:29:18;2.35;;;1.55;;
12840;SDS011;6487;48.626;12.486;2023-07-13T14:31:50;1.60;;;1.50;;
12840;SDS011;6487;48.626;12.486;2023-07-13T14:34:20;5.25;;;1.48;;
12840;SDS011;6487;48.626;12.486;2023-07-13T14:36:49;2.55;;;1.42;;
12840;SDS011;6487;48.626;12.486;2023-07-13T14:39:18;1.30;;;1.20;;
12840;SDS011;6487;48.626;12.486;2023-07-13T14:41:49;1.23;;;1.13;;
12840;SDS011;6487;48.626;12.486;2023-07-13T14:44:20;5.50;;;1.50;;
12840;SDS011;6487;48.626;12.486;2023-07-13T14:46:52;1.73;;;1.55;;
12840;SDS011;6487;48.626;12.486;2023-07-13T14:49:23;3.03;;;1.55;;
12840;SDS011;6487;48.626;12.486;2023-07-13T14:51:58;1.33;;;1.00;;
12840;SDS011;6487;48.626;12.486;2023-07-13T14:54:28;2.45;;;1.33;;
12840;SDS011;6487;48.626;12.486;2023-07-13T14:56:57;3.92;;;1.60;;
12840;SDS011;6487;48.626;12.486;2023-07-13T14:59:25;4.22;;;1.50;;
12840;SDS011;6487;48.626;12.486;2023-07-13T15:01:53;3.85;;;1.67;;
12840;SDS011;6487;48.626;12.486;2023-07-13T15:04:23;2.97;;;1.30;;
12840;SDS011;6487;48.626;12.486;2023-07-13T15:06:52;2.05;;;1.42;;
12840;SDS011;6487;48.626;12.486;2023-07-13T15:09:23;1.45;;;1.30;;
12840;SDS011;6487;48.626;12.486;2023-07-13T15:11:52;1.88;;;1.55;;
12840;SDS011;6487;48.626;12.486;2023-07-13T15:14:22;2.53;;;1.45;;
12840;SDS011;6487;48.626;12.486;2023-07-13T15:16:52;2.70;;;1.48;;
12840;SDS011;6487;48.626;12.486;2023-07-13T15:19:24;3.40;;;1.58;;